createdAt,value
2022-09-06T00:00:36.009Z,22.6
2022-09-06T00:01:44.187Z,22.6
2022-09-06T00:02:53.355Z,22.6
2022-09-06T00:04:02.522Z,22.6
2022-09-06T00:05:11.697Z,22.6
2022-09-06T00:06:20.864Z,22.6
2022-09-06T00:07:30.049Z,22.6
2022-09-06T00:08:39.211Z,22.6
2022-09-06T00:09:48.402Z,22.5
2022-09-06T00:10:57.568Z,22.5
2022-09-06T00:12:06.730Z,22.6
2022-09-06T00:13:15.904Z,22.5
2022-09-06T00:14:25.080Z,22.5
2022-09-06T00:15:34.244Z,22.5
2022-09-06T00:16:42.444Z,22.5
2022-09-06T00:17:51.612Z,22.5
2022-09-06T00:19:00.777Z,22.5
2022-09-06T00:20:09.959Z,22.4
2022-09-06T00:21:19.138Z,22.4
2022-09-06T00:22:28.323Z,22.4
2022-09-06T00:23:37.471Z,22.4
2022-09-06T00:24:46.665Z,22.4
2022-09-06T00:25:55.812Z,22.4
2022-09-06T00:27:04.983Z,22.3
2022-09-06T00:28:14.158Z,22.4
2022-09-06T00:29:23.331Z,22.4
2022-09-06T00:30:32.514Z,22.4
2022-09-06T00:31:40.696Z,22.3
2022-09-06T00:32:49.868Z,22.3
2022-09-06T00:33:59.047Z,22.3
2022-09-06T00:35:08.211Z,22.2
2022-09-06T00:36:17.407Z,22.2
2022-09-06T00:37:26.555Z,22.3
2022-09-06T00:38:35.724Z,22.3
2022-09-06T00:39:44.903Z,22.3
2022-09-06T00:40:54.068Z,22.2
2022-09-06T00:42:03.248Z,22.2
2022-09-06T00:43:12.422Z,22.2
2022-09-06T00:44:21.593Z,22.2
2022-09-06T00:45:30.760Z,22.2
2022-09-06T00:46:38.957Z,22.2
2022-09-06T00:47:48.117Z,22.2
2022-09-06T00:48:57.313Z,22.2
2022-09-06T00:50:06.466Z,22.2
2022-09-06T00:51:15.639Z,22.2
2022-09-06T00:52:24.821Z,22.1
2022-09-06T00:53:33.978Z,22.2
2022-09-06T00:54:43.157Z,22.2
2022-09-06T00:55:52.320Z,22.1
2022-09-06T00:57:01.504Z,22.1
2022-09-06T00:58:10.674Z,22.1
2022-09-06T00:59:19.845Z,22.1
2022-09-06T01:00:29.015Z,22.1
2022-09-06T01:01:37.201Z,22.1
2022-09-06T01:02:46.389Z,22.1
2022-09-06T01:03:55.556Z,22.1
2022-09-06T01:05:04.720Z,22.1
2022-09-06T01:06:13.904Z,22.1
2022-09-06T01:07:23.065Z,22.1
2022-09-06T01:08:32.231Z,22.1
2022-09-06T01:09:41.410Z,22.1
2022-09-06T01:10:50.581Z,22.1
2022-09-06T01:11:59.766Z,22.1
2022-09-06T01:13:08.929Z,22
2022-09-06T01:14:18.102Z,22
2022-09-06T01:15:27.266Z,22
2022-09-06T01:16:35.464Z,22
2022-09-06T01:17:44.639Z,22
2022-09-06T01:18:53.801Z,22
2022-09-06T01:20:02.988Z,22
2022-09-06T01:21:12.155Z,22
2022-09-06T01:22:21.322Z,21.9
2022-09-06T01:23:30.504Z,21.9
2022-09-06T01:24:39.662Z,21.9
2022-09-06T01:26:58.014Z,21.9
2022-09-06T01:28:07.189Z,21.9
2022-09-06T01:29:16.362Z,21.9
2022-09-06T01:30:25.539Z,21.9
2022-09-06T01:31:33.713Z,21.9
2022-09-06T01:32:42.881Z,21.9
2022-09-06T01:33:52.063Z,21.9
2022-09-06T01:35:01.242Z,21.8
2022-09-06T01:36:10.420Z,21.8
2022-09-06T01:37:19.578Z,21.8
2022-09-06T01:38:28.750Z,21.8
2022-09-06T01:39:37.929Z,21.8
2022-09-06T01:40:47.096Z,21.7
2022-09-06T01:41:56.263Z,21.7
2022-09-06T01:43:05.442Z,21.7
2022-09-06T01:44:14.622Z,21.7
2022-09-06T01:45:23.787Z,21.7
2022-09-06T01:46:31.984Z,21.7
2022-09-06T01:47:41.145Z,21.7
2022-09-06T01:48:50.326Z,21.7
2022-09-06T01:49:59.495Z,21.6
2022-09-06T01:51:08.674Z,21.6
2022-09-06T01:52:17.841Z,21.6
2022-09-06T01:53:27.018Z,21.5
2022-09-06T01:54:36.188Z,21.5
2022-09-06T01:55:45.354Z,21.5
2022-09-06T01:56:54.528Z,21.5
2022-09-06T01:58:03.703Z,21.4
2022-09-06T01:59:12.877Z,21.4
2022-09-06T02:00:22.048Z,21.4
2022-09-06T02:01:30.253Z,21.4
2022-09-06T02:02:39.407Z,21.4
2022-09-06T02:03:48.581Z,21.4
2022-09-06T02:04:57.758Z,21.4
2022-09-06T02:06:06.914Z,21.4
2022-09-06T02:07:16.101Z,21.4
2022-09-06T02:08:25.268Z,21.4
2022-09-06T02:09:34.443Z,21.4
2022-09-06T02:10:43.608Z,21.5
2022-09-06T02:11:52.780Z,21.4
2022-09-06T02:13:01.953Z,21.4
2022-09-06T02:14:11.148Z,21.4
2022-09-06T02:15:20.307Z,21.4
2022-09-06T02:16:28.495Z,21.4
2022-09-06T02:17:37.669Z,21.4
2022-09-06T02:18:46.829Z,21.4
2022-09-06T02:19:56.012Z,21.4
2022-09-06T02:21:05.181Z,21.4
2022-09-06T02:22:14.376Z,21.4
2022-09-06T02:23:23.529Z,21.3
2022-09-06T02:24:32.698Z,21.3
2022-09-06T02:25:41.896Z,21.3
2022-09-06T02:26:51.047Z,21.2
2022-09-06T02:28:00.219Z,21.2
2022-09-06T02:29:09.381Z,21.2
2022-09-06T02:30:18.565Z,21.2
2022-09-06T02:31:26.756Z,21.2
2022-09-06T02:32:35.929Z,21.1
2022-09-06T02:33:45.096Z,21.1
2022-09-06T02:34:54.270Z,21.1
2022-09-06T02:36:03.441Z,21.1
2022-09-06T02:37:12.617Z,21.2
2022-09-06T02:38:21.817Z,21.2
2022-09-06T02:39:30.962Z,21.2
2022-09-06T02:40:40.136Z,21.1
2022-09-06T02:41:49.306Z,21.1
2022-09-06T02:42:58.477Z,21.1
2022-09-06T02:44:07.640Z,21.1
2022-09-06T02:45:16.825Z,21.1
2022-09-06T02:46:25.012Z,21.2
2022-09-06T02:47:34.181Z,21.3
2022-09-06T02:48:42.377Z,21.3
2022-09-06T02:49:51.554Z,21.2
2022-09-06T02:51:00.738Z,21.2
2022-09-06T02:52:09.895Z,21.2
2022-09-06T02:53:19.059Z,21.2
2022-09-06T02:54:28.236Z,21.2
2022-09-06T02:55:37.411Z,21.2
2022-09-06T02:56:46.587Z,21.2
2022-09-06T02:57:55.751Z,21.2
2022-09-06T02:59:04.927Z,21.2
2022-09-06T03:00:14.101Z,21.2
2022-09-06T03:01:23.268Z,21.2
2022-09-06T03:02:32.450Z,21.2
2022-09-06T03:03:40.636Z,21.3
2022-09-06T03:04:49.817Z,21.2
2022-09-06T03:05:58.977Z,21.3
2022-09-06T03:07:08.157Z,21.2
2022-09-06T03:08:17.329Z,21.2
2022-09-06T03:09:26.491Z,21.2
2022-09-06T03:10:35.673Z,21.2
2022-09-06T03:11:44.842Z,21.2
2022-09-06T03:12:54.012Z,21.2
2022-09-06T03:14:03.185Z,21.2
2022-09-06T03:15:12.344Z,21.2
2022-09-06T03:16:21.524Z,21.2
2022-09-06T03:17:30.697Z,21.2
2022-09-06T03:18:38.899Z,21.2
2022-09-06T03:19:48.061Z,21.2
2022-09-06T03:20:57.241Z,21.2
2022-09-06T03:22:06.417Z,21.1
2022-09-06T03:23:15.580Z,21.1
2022-09-06T03:24:24.750Z,21.1
2022-09-06T03:25:33.932Z,21.1
2022-09-06T03:26:43.107Z,21.1
2022-09-06T03:27:52.275Z,21.1
2022-09-06T03:29:01.441Z,21.1
2022-09-06T03:30:10.610Z,21.1
2022-09-06T03:31:19.793Z,21.1
2022-09-06T03:32:28.970Z,21.1
2022-09-06T03:33:37.145Z,21.1
2022-09-06T03:34:46.313Z,21
2022-09-06T03:35:55.502Z,21
2022-09-06T03:37:04.665Z,21
2022-09-06T03:38:13.853Z,20.9
2022-09-06T03:39:23.008Z,20.9
2022-09-06T03:40:32.180Z,20.8
2022-09-06T03:41:41.351Z,20.8
2022-09-06T03:42:50.524Z,20.7
2022-09-06T03:43:59.707Z,20.7
2022-09-06T03:45:08.873Z,20.7
2022-09-06T03:46:18.036Z,20.6
2022-09-06T03:47:27.215Z,20.5
2022-09-06T03:48:35.410Z,20.5
2022-09-06T03:49:44.572Z,20.5
2022-09-06T03:50:53.781Z,20.6
2022-09-06T03:52:02.923Z,20.6
2022-09-06T03:53:12.096Z,20.6
2022-09-06T03:54:21.281Z,20.7
2022-09-06T03:55:30.437Z,20.8
2022-09-06T03:56:39.615Z,20.7
2022-09-06T03:57:48.788Z,20.7
2022-09-06T03:58:57.958Z,20.6
2022-09-06T04:00:07.128Z,20.6
2022-09-06T04:01:16.307Z,20.6
2022-09-06T04:02:25.481Z,20.6
2022-09-06T04:03:33.661Z,20.8
2022-09-06T04:04:42.828Z,20.8
2022-09-06T04:05:52.012Z,20.8
2022-09-06T04:07:01.182Z,20.8
2022-09-06T04:08:10.351Z,20.9
2022-09-06T04:09:19.527Z,20.9
2022-09-06T04:10:28.698Z,20.8
2022-09-06T04:12:47.044Z,20.8
2022-09-06T04:13:56.211Z,20.7
2022-09-06T04:15:05.400Z,20.8
2022-09-06T04:16:14.555Z,20.7
2022-09-06T04:17:23.726Z,20.8
2022-09-06T04:18:31.915Z,20.9
2022-09-06T04:19:41.089Z,20.9
2022-09-06T04:20:50.266Z,20.8
2022-09-06T04:21:59.436Z,20.5
2022-09-06T04:23:08.634Z,20.4
2022-09-06T04:24:17.777Z,20.4
2022-09-06T04:25:26.963Z,20.4
2022-09-06T04:26:36.127Z,20.3
2022-09-06T04:27:45.292Z,20.3
2022-09-06T04:28:54.472Z,20.4
2022-09-06T04:30:03.639Z,20.4
2022-09-06T04:31:12.808Z,20.4
2022-09-06T04:32:21.987Z,20.4
2022-09-06T04:33:30.171Z,20.5
2022-09-06T04:34:39.352Z,20.5
2022-09-06T04:35:48.523Z,20.5
2022-09-06T04:36:57.699Z,20.5
2022-09-06T04:38:06.868Z,20.5
2022-09-06T04:39:16.036Z,20.5
2022-09-06T04:40:25.210Z,20.6
2022-09-06T04:41:34.381Z,20.6
2022-09-06T04:42:43.556Z,20.6
2022-09-06T04:43:52.738Z,20.6
2022-09-06T04:45:01.899Z,20.5
2022-09-06T04:46:11.067Z,20.3
2022-09-06T04:47:20.248Z,20.2
2022-09-06T04:48:28.445Z,20.1
2022-09-06T04:49:37.597Z,19.8
2022-09-06T04:50:46.771Z,19.6
2022-09-06T04:51:55.957Z,19.5
2022-09-06T04:53:05.118Z,19.4
2022-09-06T04:54:14.293Z,19.4
2022-09-06T04:55:23.472Z,19.3
2022-09-06T04:57:41.813Z,19
2022-09-06T04:58:50.978Z,19
2022-09-06T05:00:00.169Z,19
2022-09-06T05:01:09.351Z,19
2022-09-06T05:02:18.494Z,18.9
2022-09-06T05:03:26.688Z,18.8
2022-09-06T05:04:35.860Z,18.7
2022-09-06T05:05:45.033Z,18.7
2022-09-06T05:06:54.206Z,18.8
2022-09-06T05:08:03.373Z,18.8
2022-09-06T05:09:12.547Z,18.8
2022-09-06T05:10:21.726Z,18.9
2022-09-06T05:11:30.896Z,18.9
2022-09-06T05:12:40.064Z,19
2022-09-06T05:13:49.252Z,19
2022-09-06T05:14:58.407Z,19
2022-09-06T05:16:07.589Z,18.9
2022-09-06T05:17:16.779Z,18.7
2022-09-06T05:18:25.923Z,18.7
2022-09-06T05:19:34.115Z,18.6
2022-09-06T05:20:43.287Z,18.7
2022-09-06T05:21:52.478Z,18.7
2022-09-06T05:23:01.635Z,18.8
2022-09-06T05:24:10.800Z,18.8
2022-09-06T05:25:19.984Z,18.8
2022-09-06T05:26:29.143Z,18.8
2022-09-06T05:27:38.308Z,18.8
2022-09-06T05:28:47.489Z,18.8
2022-09-06T05:29:56.655Z,18.8
2022-09-06T05:32:15.002Z,18.8
2022-09-06T05:33:24.178Z,18.9
2022-09-06T05:34:32.362Z,18.9
2022-09-06T05:35:41.530Z,19
2022-09-06T05:36:50.712Z,18.8
2022-09-06T05:37:59.884Z,18.6
2022-09-06T05:39:09.059Z,18.4
2022-09-06T05:40:18.223Z,18.3
2022-09-06T05:41:27.410Z,18.2
2022-09-06T05:42:36.571Z,18.2
2022-09-06T05:43:45.736Z,18.2
2022-09-06T05:44:54.918Z,18.1
2022-09-06T05:46:04.088Z,18.1
2022-09-06T05:47:13.263Z,18.2
2022-09-06T05:48:22.428Z,18.2
2022-09-06T05:49:30.620Z,18.2
2022-09-06T05:50:39.794Z,18.2
2022-09-06T05:51:48.972Z,18.1
2022-09-06T05:52:58.143Z,18.1
2022-09-06T05:54:07.320Z,18.1
2022-09-06T05:55:16.491Z,18.2
2022-09-06T05:56:25.667Z,18.3
2022-09-06T05:57:34.841Z,18.4
2022-09-06T05:58:44.008Z,18.5
2022-09-06T05:59:53.179Z,18.4
2022-09-06T06:01:02.367Z,18.5
2022-09-06T06:02:11.545Z,18.5
2022-09-06T06:03:20.700Z,18.5
2022-09-06T06:04:28.884Z,18.5
2022-09-06T06:05:38.053Z,18.5
2022-09-06T06:06:47.231Z,18.4
2022-09-06T06:07:56.401Z,18.3
2022-09-06T06:09:05.566Z,18.3
2022-09-06T06:10:14.749Z,18.4
2022-09-06T06:11:22.937Z,18.4
2022-09-06T06:12:32.127Z,18.4
2022-09-06T06:13:40.303Z,18.4
2022-09-06T06:14:49.478Z,18.5
2022-09-06T06:15:58.670Z,18.7
2022-09-06T06:17:07.819Z,18.7
2022-09-06T06:18:17.028Z,18.8
2022-09-06T06:19:26.168Z,18.8
2022-09-06T06:20:35.344Z,18.9
2022-09-06T06:21:44.508Z,18.9
2022-09-06T06:22:53.678Z,18.9
2022-09-06T06:24:02.858Z,18.8
2022-09-06T06:25:12.020Z,18.7
2022-09-06T06:26:21.194Z,18.7
2022-09-06T06:28:39.544Z,18.7
2022-09-06T06:30:56.913Z,18.6
2022-09-06T06:32:05.098Z,18.6
2022-09-06T06:33:13.292Z,18.6
2022-09-06T06:34:22.454Z,18.6
2022-09-06T06:35:31.641Z,18.6
2022-09-06T06:36:40.808Z,18.8
2022-09-06T06:37:50.037Z,18.8
2022-09-06T06:38:59.164Z,18.7
2022-09-06T06:40:07.366Z,18.6
2022-09-06T06:41:16.511Z,18.7
2022-09-06T06:42:25.688Z,18.7
2022-09-06T06:43:34.849Z,18.8
2022-09-06T06:44:43.050Z,18.7
2022-09-06T06:45:51.239Z,18.7
2022-09-06T06:47:00.398Z,18.6
2022-09-06T06:48:09.575Z,18.5
2022-09-06T06:49:18.755Z,18.5
2022-09-06T06:50:27.923Z,18.4
2022-09-06T06:51:37.092Z,18.5
2022-09-06T06:52:46.270Z,18.7
2022-09-06T06:53:55.441Z,18.9
2022-09-06T06:55:04.623Z,18.9
2022-09-06T06:56:13.774Z,19.1
2022-09-06T06:57:22.963Z,19.2
2022-09-06T06:58:32.143Z,19.1
2022-09-06T06:59:41.306Z,19.1
2022-09-06T07:00:49.486Z,19.1
2022-09-06T07:01:58.662Z,19.1
2022-09-06T07:03:07.846Z,19.1
2022-09-06T07:04:17.001Z,19.2
2022-09-06T07:05:26.181Z,19.2
2022-09-06T07:06:35.357Z,19.2
2022-09-06T07:07:44.525Z,19.1
2022-09-06T07:08:53.703Z,19.1
2022-09-06T07:10:02.878Z,19.1
2022-09-06T07:11:12.029Z,18.9
2022-09-06T07:12:21.207Z,18.7
2022-09-06T07:13:30.378Z,18.6
2022-09-06T07:14:39.561Z,18.6
2022-09-06T07:15:47.742Z,18.7
2022-09-06T07:16:56.913Z,18.7
2022-09-06T07:18:06.085Z,18.8
2022-09-06T07:19:15.267Z,18.9
2022-09-06T07:20:24.424Z,18.9
2022-09-06T07:21:33.594Z,18.8
2022-09-06T07:22:42.778Z,18.8
2022-09-06T07:23:51.960Z,19
2022-09-06T07:25:01.120Z,19
2022-09-06T07:26:10.292Z,19.2
2022-09-06T07:27:19.469Z,19.4
2022-09-06T07:28:28.638Z,19.4
2022-09-06T07:29:37.804Z,19.5
2022-09-06T07:30:45.988Z,19.5
2022-09-06T07:31:55.166Z,19.6
2022-09-06T07:33:04.348Z,19.5
2022-09-06T07:34:13.507Z,19.4
2022-09-06T07:35:22.685Z,19.7
2022-09-06T07:36:31.863Z,20
2022-09-06T07:37:41.026Z,20.2
2022-09-06T07:38:50.214Z,20.5
2022-09-06T07:39:59.373Z,21
2022-09-06T07:41:08.552Z,21.7
2022-09-06T07:42:17.720Z,22.3
2022-09-06T07:43:26.891Z,22.2
2022-09-06T07:44:36.073Z,22
2022-09-06T07:45:44.257Z,21.8
2022-09-06T07:46:53.427Z,21.8
2022-09-06T07:48:02.601Z,22
2022-09-06T07:49:11.767Z,22.2
2022-09-06T07:50:20.939Z,22.5
2022-09-06T07:51:30.122Z,23
2022-09-06T07:52:39.285Z,23
2022-09-06T07:53:48.452Z,23
2022-09-06T07:54:57.638Z,23.4
2022-09-06T07:56:06.802Z,23.5
2022-09-06T07:57:15.974Z,23.1
2022-09-06T07:58:25.151Z,22.7
2022-09-06T07:59:34.339Z,22.7
2022-09-06T08:00:42.501Z,23
2022-09-06T08:01:51.684Z,23.2
2022-09-06T08:03:00.853Z,23.3
2022-09-06T08:04:10.027Z,23.2
2022-09-06T08:05:19.207Z,23.6
2022-09-06T08:06:28.366Z,23.6
2022-09-06T08:07:37.600Z,23.7
2022-09-06T08:08:46.717Z,23.9
2022-09-06T08:09:55.899Z,24.2
2022-09-06T08:11:05.091Z,24.5
2022-09-06T08:12:14.239Z,24.9
2022-09-06T08:13:23.411Z,24.9
2022-09-06T08:14:32.576Z,24.1
2022-09-06T08:15:40.768Z,23.7
2022-09-06T08:16:49.936Z,23.7
2022-09-06T08:17:59.117Z,24.3
2022-09-06T08:19:08.278Z,24.5
2022-09-06T08:21:26.624Z,24.9
2022-09-06T08:22:35.807Z,25
2022-09-06T08:23:44.976Z,24.9
2022-09-06T08:24:54.144Z,24.2
2022-09-06T08:26:03.317Z,24.4
2022-09-06T08:27:12.495Z,24.7
2022-09-06T08:28:21.665Z,25
2022-09-06T08:29:30.840Z,24.9
2022-09-06T08:30:40.011Z,24.8
2022-09-06T08:31:48.259Z,25.3
2022-09-06T08:32:57.377Z,25.5
2022-09-06T08:34:06.548Z,26
2022-09-06T08:35:15.712Z,26.2
2022-09-06T08:36:24.891Z,25.4
2022-09-06T08:37:34.055Z,25.1
2022-09-06T08:38:43.237Z,25.1
2022-09-06T08:39:52.407Z,25.3
2022-09-06T08:41:01.583Z,26
2022-09-06T08:42:10.750Z,26.4
2022-09-06T08:43:19.926Z,26.7
2022-09-06T08:44:29.094Z,26.5
2022-09-06T08:45:38.278Z,26.4
2022-09-06T08:46:46.459Z,26.3
2022-09-06T08:47:55.625Z,26.6
2022-09-06T08:49:04.804Z,26.7
2022-09-06T08:50:13.976Z,27.1
2022-09-06T08:51:23.161Z,27.1
2022-09-06T08:52:32.329Z,26.5
2022-09-06T08:53:41.485Z,26.7
2022-09-06T08:54:50.667Z,27
2022-09-06T08:55:59.837Z,27.6
2022-09-06T08:57:09.008Z,27.1
2022-09-06T08:58:18.192Z,27.4
2022-09-06T08:59:27.363Z,27.5
2022-09-06T09:00:36.533Z,27.4
2022-09-06T09:01:44.719Z,27
2022-09-06T09:02:53.901Z,27.5
2022-09-06T09:04:03.110Z,27.8
2022-09-06T09:05:12.227Z,27.9
2022-09-06T09:06:21.403Z,27.6
2022-09-06T09:07:30.584Z,27.9
2022-09-06T09:08:39.754Z,27.5
2022-09-06T09:09:48.929Z,26.9
2022-09-06T09:10:58.090Z,26.5
2022-09-06T09:12:07.275Z,27.1
2022-09-06T09:13:16.441Z,26.9
2022-09-06T09:14:25.608Z,27.4
2022-09-06T09:15:34.786Z,27.4
2022-09-06T09:16:42.981Z,27.2
2022-09-06T09:17:52.146Z,27.4
2022-09-06T09:19:01.323Z,27.3
2022-09-06T09:20:10.498Z,27.3
2022-09-06T09:22:28.829Z,26.8
2022-09-06T09:24:47.182Z,27.2
2022-09-06T09:25:56.357Z,27.5
2022-09-06T09:27:05.528Z,27.8
2022-09-06T09:28:14.702Z,28
2022-09-06T09:29:23.878Z,28.1
2022-09-06T09:30:33.047Z,28
2022-09-06T09:31:41.238Z,28.9
2022-09-06T09:32:50.410Z,28.3
2022-09-06T09:33:59.577Z,28.3
2022-09-06T09:35:08.762Z,28.7
2022-09-06T09:36:17.921Z,29.4
2022-09-06T09:37:27.097Z,29.9
2022-09-06T09:38:36.275Z,28.5
2022-09-06T09:39:45.436Z,28.6
2022-09-06T09:40:54.616Z,29.2
2022-09-06T09:42:03.788Z,29.1
2022-09-06T09:43:12.954Z,28.5
2022-09-06T09:44:22.138Z,28.3
2022-09-06T09:45:31.304Z,28.5
2022-09-06T09:46:39.490Z,27.9
2022-09-06T09:47:48.666Z,27.9
2022-09-06T09:48:57.836Z,28.2
2022-09-06T09:50:07.018Z,28.4
2022-09-06T09:51:16.269Z,28.2
2022-09-06T09:52:25.356Z,28.5
2022-09-06T09:53:34.543Z,28.3
2022-09-06T09:54:43.710Z,27.8
2022-09-06T09:55:52.882Z,28.1
2022-09-06T09:57:02.054Z,28.4
2022-09-06T09:58:11.227Z,28.5
2022-09-06T09:59:20.396Z,28.8
2022-09-06T10:00:29.565Z,29.9
2022-09-06T10:01:37.769Z,29.5
2022-09-06T10:02:46.933Z,28.3
2022-09-06T10:03:56.105Z,27.4
2022-09-06T10:05:05.287Z,27.3
2022-09-06T10:06:14.459Z,27.5
2022-09-06T10:07:23.626Z,28.2
2022-09-06T10:08:32.797Z,28.2
2022-09-06T10:09:41.982Z,28.3
2022-09-06T10:10:51.137Z,27.9
2022-09-06T10:12:00.320Z,28.3
2022-09-06T10:13:09.485Z,28.4
2022-09-06T10:14:18.651Z,28.4
2022-09-06T10:16:37.006Z,30
2022-09-06T10:17:45.190Z,29.5
2022-09-06T10:18:54.371Z,29.3
2022-09-06T10:20:03.540Z,29
2022-09-06T10:21:12.712Z,29.7
2022-09-06T10:22:21.886Z,29.7
2022-09-06T10:23:31.064Z,29.3
2022-09-06T10:24:40.227Z,29.7
2022-09-06T10:25:49.426Z,29.8
2022-09-06T10:26:58.578Z,29.9
2022-09-06T10:28:07.748Z,29.9
2022-09-06T10:29:16.921Z,30.3
2022-09-06T10:30:26.096Z,29.4
2022-09-06T10:31:35.267Z,29.4
2022-09-06T10:32:43.462Z,29.8
2022-09-06T10:33:52.635Z,30.2
2022-09-06T10:35:01.833Z,30.6
2022-09-06T10:36:10.982Z,30.4
2022-09-06T10:37:20.147Z,30
2022-09-06T10:38:29.326Z,30.3
2022-09-06T10:39:38.491Z,30.8
2022-09-06T10:40:47.700Z,31
2022-09-06T10:41:56.869Z,30.3
2022-09-06T10:43:06.024Z,30.5
2022-09-06T10:44:15.190Z,30.9
2022-09-06T10:45:24.372Z,31.3
2022-09-06T10:46:33.560Z,31
2022-09-06T10:48:50.901Z,30.5
2022-09-06T10:50:00.070Z,30.7
2022-09-06T10:51:09.241Z,30.4
2022-09-06T10:52:18.420Z,30.9
2022-09-06T10:53:27.597Z,30.9
2022-09-06T10:54:36.762Z,30.4
2022-09-06T10:55:45.950Z,29.9
2022-09-06T10:56:55.108Z,28.7
2022-09-06T10:58:04.290Z,28.7
2022-09-06T10:59:13.451Z,29.6
2022-09-06T11:00:22.623Z,30
2022-09-06T11:01:31.802Z,30.4
2022-09-06T11:02:40.009Z,30.6
2022-09-06T11:03:49.171Z,30
2022-09-06T11:04:58.336Z,29.3
2022-09-06T11:06:07.510Z,28.7
2022-09-06T11:07:16.687Z,29
2022-09-06T11:08:25.860Z,29.5
2022-09-06T11:09:35.042Z,30.6
2022-09-06T11:10:44.215Z,31.3
2022-09-06T11:11:53.376Z,30.8
2022-09-06T11:13:02.559Z,29.8
2022-09-06T11:14:11.731Z,29.7
2022-09-06T11:15:20.921Z,29.8
2022-09-06T11:16:30.068Z,29.7
2022-09-06T11:17:39.251Z,29.7
2022-09-06T11:18:47.427Z,29.5
2022-09-06T11:19:56.601Z,30.2
2022-09-06T11:21:05.777Z,30.3
2022-09-06T11:22:14.942Z,30.9
2022-09-06T11:23:24.126Z,31.5
2022-09-06T11:24:33.299Z,31.9
2022-09-06T11:25:42.463Z,32.1
2022-09-06T11:26:51.633Z,32.9
2022-09-06T11:28:00.808Z,32.9
2022-09-06T11:29:09.996Z,32.6
2022-09-06T11:30:19.161Z,32.6
2022-09-06T11:31:28.332Z,32.4
2022-09-06T11:32:37.498Z,31.1
2022-09-06T11:33:45.691Z,31.3
2022-09-06T11:34:54.890Z,30.7
2022-09-06T11:36:04.041Z,30.8
2022-09-06T11:37:13.206Z,31.7
2022-09-06T11:38:22.377Z,32.6
2022-09-06T11:39:31.561Z,31.5
2022-09-06T11:40:40.724Z,31.5
2022-09-06T11:41:48.925Z,29.9
2022-09-06T11:42:57.123Z,29.9
2022-09-06T11:44:06.293Z,30.9
2022-09-06T11:45:15.455Z,31.5
2022-09-06T11:46:23.678Z,31.4
2022-09-06T11:47:31.840Z,31.2
2022-09-06T11:48:41.008Z,30.7
2022-09-06T11:49:50.189Z,31.3
2022-09-06T11:50:59.374Z,31.6
2022-09-06T11:52:08.535Z,32
2022-09-06T11:53:17.703Z,31.1
2022-09-06T11:54:26.877Z,30.4
2022-09-06T11:55:36.048Z,30.7
2022-09-06T11:56:45.222Z,31.1
2022-09-06T11:57:54.397Z,30.5
2022-09-06T11:59:03.565Z,30
2022-09-06T12:00:12.735Z,30.6
2022-09-06T12:01:21.917Z,31.3
2022-09-06T12:02:30.100Z,32.3
2022-09-06T12:03:39.274Z,32.8
2022-09-06T12:04:48.447Z,31.6
2022-09-06T12:05:57.619Z,30.1
2022-09-06T12:07:06.800Z,30.1
2022-09-06T12:08:15.965Z,30.1
2022-09-06T12:09:25.146Z,30.1
2022-09-06T12:10:34.316Z,30.3
2022-09-06T12:11:43.486Z,31
2022-09-06T12:12:52.656Z,31.8
2022-09-06T12:14:01.836Z,32.3
2022-09-06T12:15:10.996Z,32.6
2022-09-06T12:16:20.180Z,32.6
2022-09-06T12:17:29.353Z,32.9
2022-09-06T12:18:37.544Z,32.8
2022-09-06T12:19:46.714Z,32.2
2022-09-06T12:20:55.887Z,32.5
2022-09-06T12:22:05.067Z,32.8
2022-09-06T12:23:14.227Z,32.2
2022-09-06T12:24:23.412Z,32
2022-09-06T12:25:32.577Z,31.1
2022-09-06T12:26:41.748Z,31.4
2022-09-06T12:27:49.944Z,31.7
2022-09-06T12:28:58.138Z,31.9
2022-09-06T12:30:07.307Z,32.1
2022-09-06T12:31:15.504Z,31.6
2022-09-06T12:32:23.686Z,31.7
2022-09-06T12:33:32.866Z,31.9
2022-09-06T12:34:42.051Z,31.6
2022-09-06T12:35:51.209Z,31
2022-09-06T12:37:00.379Z,30.6
2022-09-06T12:38:09.558Z,30.9
2022-09-06T12:39:18.747Z,31.1
2022-09-06T12:40:27.897Z,31.5
2022-09-06T12:41:37.077Z,32.1
2022-09-06T12:42:46.240Z,32.6
2022-09-06T12:43:55.426Z,32.8
2022-09-06T12:45:04.606Z,31.5
2022-09-06T12:46:13.758Z,31.5
2022-09-06T12:47:21.965Z,31.8
2022-09-06T12:48:31.121Z,31.8
2022-09-06T12:49:40.293Z,32
2022-09-06T12:50:49.468Z,32.4
2022-09-06T12:51:58.649Z,32.7
2022-09-06T12:53:07.818Z,32.4
2022-09-06T12:54:16.996Z,32.5
2022-09-06T12:55:26.173Z,32.2
2022-09-06T12:56:35.381Z,33
2022-09-06T12:57:44.504Z,32.6
2022-09-06T12:58:53.674Z,31.8
2022-09-06T13:00:02.856Z,31.5
2022-09-06T13:01:12.025Z,30.9
2022-09-06T13:02:20.214Z,31.1
2022-09-06T13:03:29.386Z,31.5
2022-09-06T13:04:38.569Z,31.6
2022-09-06T13:05:47.731Z,32
2022-09-06T13:06:56.908Z,32.7
2022-09-06T13:08:06.083Z,33.6
2022-09-06T13:09:15.268Z,34.3
2022-09-06T13:10:24.426Z,34.6
2022-09-06T13:11:33.602Z,34.5
2022-09-06T13:12:42.784Z,34.2
2022-09-06T13:13:51.944Z,32.9
2022-09-06T13:15:01.116Z,32.5
2022-09-06T13:16:10.287Z,31.5
2022-09-06T13:17:18.475Z,31.5
2022-09-06T13:18:27.662Z,32.7
2022-09-06T13:19:36.833Z,33.2
2022-09-06T13:20:45.995Z,32.8
2022-09-06T13:21:55.167Z,33.5
2022-09-06T13:23:04.349Z,34.4
2022-09-06T13:25:22.699Z,32.4
2022-09-06T13:26:31.875Z,31.1
2022-09-06T13:27:41.038Z,31.5
2022-09-06T13:28:50.217Z,30.3
2022-09-06T13:29:59.382Z,29.5
2022-09-06T13:31:08.556Z,30
2022-09-06T13:32:16.748Z,30.7
2022-09-06T13:33:25.923Z,31.5
2022-09-06T13:34:35.090Z,32
2022-09-06T13:35:44.265Z,32.1
2022-09-06T13:36:53.431Z,32
2022-09-06T13:38:02.614Z,30.1
2022-09-06T13:39:11.783Z,30.4
2022-09-06T13:40:20.957Z,31.2
2022-09-06T13:41:30.122Z,31.4
2022-09-06T13:42:39.305Z,32.2
2022-09-06T13:43:48.489Z,32
2022-09-06T13:44:57.646Z,31.6
2022-09-06T13:46:06.834Z,30.4
2022-09-06T13:47:15.016Z,30.4
2022-09-06T13:48:24.193Z,31
2022-09-06T13:50:42.552Z,31.7
2022-09-06T13:51:51.704Z,31.4
2022-09-06T13:53:00.880Z,31.3
2022-09-06T13:54:10.055Z,31.8
2022-09-06T13:55:19.232Z,32.1
2022-09-06T13:56:28.411Z,31.8
2022-09-06T13:57:37.600Z,31.4
2022-09-06T13:58:46.748Z,31.8
2022-09-06T13:59:55.926Z,31.8
2022-09-06T14:01:05.090Z,31.6
2022-09-06T14:02:13.292Z,32.7
2022-09-06T14:03:22.457Z,33.1
2022-09-06T14:04:31.629Z,33
2022-09-06T14:05:40.805Z,32.6
2022-09-06T14:06:49.977Z,32.5
2022-09-06T14:07:59.154Z,32.4
2022-09-06T14:09:08.319Z,31.5
2022-09-06T14:10:17.489Z,30.8
2022-09-06T14:11:26.660Z,30.7
2022-09-06T14:12:35.833Z,30.6
2022-09-06T14:13:45.009Z,30.4
2022-09-06T14:14:54.185Z,30.8
2022-09-06T14:16:03.375Z,31.5
2022-09-06T14:17:11.548Z,31.8
2022-09-06T14:18:20.720Z,32.4
2022-09-06T14:19:29.889Z,32.6
2022-09-06T14:20:39.071Z,31.9
2022-09-06T14:21:48.241Z,32.2
2022-09-06T14:22:57.417Z,32.2
2022-09-06T14:24:06.590Z,31.1
2022-09-06T14:25:14.783Z,31.2
2022-09-06T14:26:23.955Z,30.5
2022-09-06T14:27:33.125Z,30
2022-09-06T14:28:42.304Z,29.9
2022-09-06T14:29:51.479Z,29.7
2022-09-06T14:31:00.646Z,29.7
2022-09-06T14:32:09.815Z,29.8
2022-09-06T14:33:18.986Z,29.8
2022-09-06T14:34:28.166Z,29.8
2022-09-06T14:35:37.329Z,29.8
2022-09-06T14:36:46.513Z,30.9
2022-09-06T14:37:55.694Z,31.5
2022-09-06T14:39:04.844Z,32.3
2022-09-06T14:40:13.047Z,32.5
2022-09-06T14:41:22.217Z,32.7
2022-09-06T14:42:31.396Z,32.7
2022-09-06T14:43:40.570Z,32.2
2022-09-06T14:44:49.746Z,32.7
2022-09-06T14:45:58.917Z,32.9
2022-09-06T14:47:08.079Z,32.6
2022-09-06T14:48:17.252Z,32.7
2022-09-06T14:49:26.426Z,33.5
2022-09-06T14:50:35.601Z,33.2
2022-09-06T14:51:44.774Z,33
2022-09-06T14:52:53.940Z,33.1
2022-09-06T14:54:03.120Z,32.9
2022-09-06T14:55:11.303Z,32.9
2022-09-06T14:56:20.486Z,32.8
2022-09-06T14:57:29.665Z,32.4
2022-09-06T14:58:38.821Z,32.3
2022-09-06T14:59:48.007Z,32
2022-09-06T15:00:57.176Z,32.5
2022-09-06T15:02:06.355Z,32.8
2022-09-06T15:03:15.521Z,32.8
2022-09-06T15:04:24.691Z,32
2022-09-06T15:05:33.871Z,31.8
2022-09-06T15:06:43.042Z,31.8
2022-09-06T15:07:52.215Z,31.6
2022-09-06T15:09:01.393Z,31.3
2022-09-06T15:10:10.562Z,31.4
2022-09-06T15:11:18.748Z,31.2
2022-09-06T15:12:27.915Z,31
2022-09-06T15:13:37.100Z,31.3
2022-09-06T15:14:46.263Z,31.6
2022-09-06T15:15:55.440Z,31.2
2022-09-06T15:17:04.610Z,31.5
2022-09-06T15:18:13.817Z,31.6
2022-09-06T15:19:22.968Z,31.3
2022-09-06T15:20:32.132Z,32.2
2022-09-06T15:21:41.308Z,32.8
2022-09-06T15:22:50.479Z,32.8
2022-09-06T15:23:59.666Z,32.8
2022-09-06T15:25:08.827Z,33.3
2022-09-06T15:26:17.013Z,32.7
2022-09-06T15:27:26.194Z,32.4
2022-09-06T15:28:35.360Z,31.9
2022-09-06T15:29:44.534Z,31.4
2022-09-06T15:30:53.706Z,31.1
2022-09-06T15:32:02.879Z,31.1
2022-09-06T15:33:12.060Z,31.1
2022-09-06T15:34:21.237Z,31.2
2022-09-06T15:35:30.411Z,31.4
2022-09-06T15:36:39.603Z,31
2022-09-06T15:37:48.752Z,31.2
2022-09-06T15:38:57.929Z,31.2